LZKZ/KSC METAR and TAF weather

Enter ICAO airport designator
Station Type Date Time Source
LZKZ METAR 2022/06/28 12:30 UTC NOAA

LZKZ 281230Z 18004KT CAVOK 32/14 Q1017 NOSIG


Station Type Date Time Source
LZKZ Decoded METAR 2022/06/28 12:30 UTC NOAA

Kosice, Barca, Slovakia (LZKZ) 48-39-47N 021-14-28E
Jun 28, 2022 - 08:30 AM EDT / 2022.06.28 1230 UTC
Wind: from the S (180 degrees) at 5 MPH (4 KT):0
Visibility: greater than 7 mile(s):0
Temperature: 89 F (32 C)
Dew Point: 57 F (14 C)
Relative Humidity: 33%
Pressure (altimeter): 30.03 in. Hg (1017 hPa)
ob: LZKZ 281230Z 18004KT CAVOK 32/14 Q1017 NOSIG
cycle: 12

Station Type Date Time Source
LZKZ TAF 2022/06/28 12:03 UTC NOAA

TAF LZKZ 281115Z 2812/2912 24004KT CAVOK PROB40
TEMPO 2812/2816 9999 -SHRA FEW048CB
BECMG 2818/2820 36005KT
BECMG 2906/2908 09005KT

Example: see airport list